createdAt,value
2018-12-10T00:00:34.401Z,3.79
2018-12-10T00:03:07.736Z,3.79
2018-12-10T00:05:35.339Z,3.76
2018-12-10T00:08:02.886Z,3.79
2018-12-10T00:10:30.482Z,3.78
2018-12-10T00:12:58.019Z,3.76
2018-12-10T00:15:25.565Z,3.80
2018-12-10T00:17:53.131Z,3.79
2018-12-10T00:20:20.668Z,3.89
2018-12-10T00:22:48.212Z,3.86
2018-12-10T00:25:15.786Z,3.80
2018-12-10T00:27:43.392Z,3.82
2018-12-10T00:30:10.966Z,3.83
2018-12-10T00:32:38.518Z,3.81
2018-12-10T00:35:06.290Z,3.78
2018-12-10T00:37:33.841Z,3.68
2018-12-10T00:40:01.401Z,3.70
2018-12-10T00:42:29.273Z,3.64
2018-12-10T00:44:56.838Z,3.63
2018-12-10T00:47:24.370Z,3.61
2018-12-10T00:49:51.921Z,3.64
2018-12-10T00:52:19.573Z,3.65
2018-12-10T00:54:47.130Z,3.65
2018-12-10T00:57:14.697Z,3.65
2018-12-10T00:59:42.241Z,3.66
2018-12-10T01:02:09.819Z,3.70
2018-12-10T01:04:37.429Z,3.50
2018-12-10T01:07:05.010Z,3.45
2018-12-10T01:09:32.619Z,3.52
2018-12-10T01:12:00.187Z,3.44
2018-12-10T01:14:27.752Z,3.43
2018-12-10T01:16:55.318Z,3.35
2018-12-10T01:19:22.851Z,3.30
2018-12-10T01:21:50.385Z,3.33
2018-12-10T01:24:18.221Z,3.33
2018-12-10T01:26:45.768Z,3.35
2018-12-10T01:29:13.299Z,3.39
2018-12-10T01:31:40.853Z,3.47
2018-12-10T01:34:08.388Z,3.36
2018-12-10T01:36:35.937Z,3.37
2018-12-10T01:39:04.759Z,3.37
2018-12-10T01:41:32.380Z,3.41
2018-12-10T01:44:00.388Z,3.36
2018-12-10T01:46:27.951Z,3.37
2018-12-10T01:48:55.498Z,3.30
2018-12-10T01:51:23.063Z,3.33
2018-12-10T01:53:50.617Z,3.30
2018-12-10T01:56:18.179Z,3.37
2018-12-10T01:58:46.066Z,3.33
2018-12-10T02:01:13.609Z,3.38
2018-12-10T02:03:41.167Z,3.29
2018-12-10T02:06:08.872Z,3.25
2018-12-10T02:08:36.431Z,3.33
2018-12-10T02:11:04.016Z,3.21
2018-12-10T02:13:31.556Z,3.16
2018-12-10T02:15:59.097Z,3.13
2018-12-10T02:18:26.641Z,3.11
2018-12-10T02:20:54.204Z,3.10
2018-12-10T02:23:21.751Z,3.12
2018-12-10T02:25:49.613Z,3.09
2018-12-10T02:28:21.731Z,3.11
2018-12-10T02:30:49.260Z,3.11
2018-12-10T02:33:18.025Z,3.12
2018-12-10T02:35:45.580Z,3.09
2018-12-10T02:38:13.219Z,3.08
2018-12-10T02:40:40.779Z,3.11
2018-12-10T02:43:08.312Z,3.18
2018-12-10T02:45:35.868Z,3.17
2018-12-10T02:48:03.461Z,3.20
2018-12-10T02:50:31.078Z,3.11
2018-12-10T02:52:58.610Z,3.16
2018-12-10T02:55:26.161Z,3.09
2018-12-10T02:57:53.704Z,3.18
2018-12-10T03:00:21.585Z,3.15
2018-12-10T03:02:49.238Z,3.21
2018-12-10T03:05:16.839Z,3.14
2018-12-10T03:07:44.413Z,3.19
2018-12-10T03:10:11.949Z,3.11
2018-12-10T03:12:39.498Z,3.16
2018-12-10T03:15:07.745Z,3.08
2018-12-10T03:17:35.273Z,3.18
2018-12-10T03:20:02.965Z,3.19
2018-12-10T03:22:30.507Z,3.20
2018-12-10T03:24:58.091Z,3.23
2018-12-10T03:27:25.658Z,3.15
2018-12-10T03:29:53.177Z,3.19
2018-12-10T03:32:20.732Z,3.11
2018-12-10T03:34:48.301Z,3.15
2018-12-10T03:37:15.843Z,3.13
2018-12-10T03:39:43.517Z,3.12
2018-12-10T03:42:11.040Z,3.05
2018-12-10T03:44:38.609Z,3.10
2018-12-10T03:47:06.220Z,3.02
2018-12-10T03:49:33.769Z,3.00
2018-12-10T03:52:01.422Z,2.97
2018-12-10T03:54:29.026Z,3.01
2018-12-10T03:56:57.698Z,3.01
2018-12-10T03:59:25.342Z,3.03
2018-12-10T04:01:52.930Z,2.99
2018-12-10T04:04:20.602Z,2.94
2018-12-10T04:06:48.139Z,3.05
2018-12-10T04:09:15.688Z,3.01
2018-12-10T04:11:43.568Z,2.97
2018-12-10T04:14:11.116Z,2.98
2018-12-10T04:16:38.784Z,2.97
2018-12-10T04:19:06.325Z,2.90
2018-12-10T04:21:33.863Z,2.87
2018-12-10T04:24:01.430Z,2.96
2018-12-10T04:26:28.970Z,2.86
2018-12-10T04:28:56.790Z,2.90
2018-12-10T04:31:24.323Z,2.98
2018-12-10T04:33:51.877Z,2.96
2018-12-10T04:36:19.430Z,2.88
2018-12-10T04:38:46.953Z,2.94
2018-12-10T04:41:14.889Z,2.95
2018-12-10T04:43:42.434Z,2.95
2018-12-10T04:46:09.959Z,2.96
2018-12-10T04:48:37.520Z,2.84
2018-12-10T04:51:05.126Z,2.86
2018-12-10T04:53:32.678Z,2.80
2018-12-10T04:56:00.226Z,2.78
2018-12-10T04:58:27.770Z,2.73
2018-12-10T05:00:55.298Z,2.67
2018-12-10T05:03:22.879Z,2.68
2018-12-10T05:05:50.409Z,2.73
2018-12-10T05:08:17.953Z,2.82
2018-12-10T05:10:45.497Z,2.89
2018-12-10T05:13:13.023Z,2.86
2018-12-10T05:15:41.014Z,2.92
2018-12-10T05:18:08.549Z,2.88
2018-12-10T05:20:36.103Z,2.83
2018-12-10T05:23:03.746Z,2.91
2018-12-10T05:25:31.345Z,2.84
2018-12-10T05:27:58.909Z,2.94
2018-12-10T05:30:26.521Z,2.95
2018-12-10T05:32:54.068Z,2.94
2018-12-10T05:35:21.646Z,3.01
2018-12-10T05:37:49.173Z,2.96
2018-12-10T05:40:16.756Z,2.98
2018-12-10T05:42:44.301Z,2.98
2018-12-10T05:45:11.850Z,2.95
2018-12-10T05:47:39.814Z,2.87
2018-12-10T05:50:07.490Z,2.85
2018-12-10T05:52:35.907Z,2.72
2018-12-10T05:55:04.011Z,2.68
2018-12-10T05:57:31.567Z,2.70
2018-12-10T05:59:59.133Z,2.71
2018-12-10T06:02:26.752Z,2.70
2018-12-10T06:04:54.303Z,2.69
2018-12-10T06:07:22.141Z,2.64
2018-12-10T06:09:51.191Z,2.60
2018-12-10T06:12:18.922Z,2.61
2018-12-10T06:14:46.481Z,2.57
2018-12-10T06:17:14.077Z,2.54
2018-12-10T06:19:41.798Z,2.63
2018-12-10T06:22:09.340Z,2.58
2018-12-10T06:24:37.128Z,2.56
2018-12-10T06:27:04.653Z,2.54
2018-12-10T06:29:32.341Z,2.52
2018-12-10T06:31:59.866Z,2.52
2018-12-10T06:34:27.426Z,2.52
2018-12-10T06:36:55.024Z,2.36
2018-12-10T06:39:22.604Z,2.43
2018-12-10T06:41:50.160Z,2.44
2018-12-10T06:44:17.710Z,2.40
2018-12-10T06:46:45.348Z,2.39
2018-12-10T06:49:12.902Z,2.39
2018-12-10T06:51:40.865Z,2.36
2018-12-10T06:54:08.407Z,2.34
2018-12-10T06:56:35.950Z,2.40
2018-12-10T06:59:03.929Z,2.40
2018-12-10T07:01:31.615Z,2.39
2018-12-10T07:03:59.168Z,2.35
2018-12-10T07:06:27.131Z,2.36
2018-12-10T07:08:54.720Z,2.48
2018-12-10T07:11:22.256Z,2.49
2018-12-10T07:13:50.116Z,2.40
2018-12-10T07:16:17.727Z,2.39
2018-12-10T07:18:45.276Z,2.23
2018-12-10T07:21:15.301Z,2.37
2018-12-10T07:23:42.870Z,2.35
2018-12-10T07:26:10.404Z,2.30
2018-12-10T07:28:38.080Z,2.26
2018-12-10T07:31:06.494Z,2.17
2018-12-10T07:33:34.047Z,2.09
2018-12-10T07:36:01.624Z,2.14
2018-12-10T07:38:29.334Z,2.27
2018-12-10T07:40:56.841Z,2.35
2018-12-10T07:43:24.399Z,2.39
2018-12-10T07:45:51.958Z,2.44
2018-12-10T07:48:19.521Z,2.52
2018-12-10T07:50:47.076Z,2.61
2018-12-10T07:53:14.641Z,2.93
2018-12-10T07:55:42.260Z,3.37
2018-12-10T07:58:09.818Z,3.41
2018-12-10T08:00:37.390Z,3.62
2018-12-10T08:03:05.389Z,3.94
2018-12-10T08:05:32.908Z,4.35
2018-12-10T08:08:00.460Z,4.39
2018-12-10T08:10:28.013Z,4.14
2018-12-10T08:12:55.603Z,3.87
2018-12-10T08:15:23.243Z,3.61
2018-12-10T08:17:50.803Z,3.36
2018-12-10T08:20:18.349Z,3.12
2018-12-10T08:22:45.872Z,3.04
2018-12-10T08:25:13.489Z,2.93
2018-12-10T08:27:41.024Z,3.02
2018-12-10T08:30:09.043Z,2.88
2018-12-10T08:32:36.581Z,2.86
2018-12-10T08:35:04.211Z,2.84
2018-12-10T08:37:31.785Z,2.84
2018-12-10T08:39:59.322Z,2.79
2018-12-10T08:42:26.866Z,2.73
2018-12-10T08:44:54.401Z,2.72
2018-12-10T08:47:22.288Z,2.59
2018-12-10T08:49:49.839Z,2.59
2018-12-10T08:52:17.377Z,2.59
2018-12-10T08:54:45.022Z,2.51
2018-12-10T08:57:12.732Z,2.29
2018-12-10T08:59:40.438Z,2.31
2018-12-10T09:02:07.991Z,2.24
2018-12-10T09:04:36.722Z,2.25
2018-12-10T09:07:04.809Z,2.28
2018-12-10T09:09:32.379Z,2.06
2018-12-10T09:11:59.913Z,1.95
2018-12-10T09:14:27.479Z,1.94
2018-12-10T09:16:55.024Z,1.96
2018-12-10T09:19:22.539Z,1.96
2018-12-10T09:21:50.096Z,2.03
2018-12-10T09:24:17.676Z,1.98
2018-12-10T09:26:45.265Z,2.10
2018-12-10T09:29:12.797Z,2.31
2018-12-10T09:31:40.365Z,2.68
2018-12-10T09:34:07.884Z,2.64
2018-12-10T09:36:35.443Z,2.71
2018-12-10T09:39:04.789Z,2.96
2018-12-10T09:41:32.337Z,2.91
2018-12-10T09:43:59.915Z,3.17
2018-12-10T09:46:27.850Z,3.56
2018-12-10T09:48:55.481Z,4.37
2018-12-10T09:51:24.979Z,4.49
2018-12-10T09:53:52.595Z,4.28
2018-12-10T09:56:20.186Z,4.21
2018-12-10T09:58:47.730Z,3.95
2018-12-10T10:01:15.352Z,4.03
2018-12-10T10:03:42.921Z,3.99
2018-12-10T10:06:10.810Z,3.77
2018-12-10T10:08:38.337Z,3.69
2018-12-10T10:11:05.890Z,3.57
2018-12-10T10:13:33.445Z,3.75
2018-12-10T10:16:00.982Z,3.83
2018-12-10T10:18:28.534Z,4.18
2018-12-10T10:20:56.110Z,4.27
2018-12-10T10:23:23.680Z,4.31
2018-12-10T10:25:52.369Z,4.37
2018-12-10T10:28:20.018Z,4.28
2018-12-10T10:30:47.565Z,4.19
2018-12-10T10:33:15.122Z,4.22
2018-12-10T10:35:42.723Z,4.14
2018-12-10T10:38:10.277Z,4.21
2018-12-10T10:40:37.830Z,4.12
2018-12-10T10:43:05.385Z,3.93
2018-12-10T10:45:34.871Z,3.76
2018-12-10T10:48:02.486Z,3.81
2018-12-10T10:50:30.057Z,3.84
2018-12-10T10:52:57.618Z,4.03
2018-12-10T10:55:25.224Z,3.91
2018-12-10T10:57:52.736Z,4.02
2018-12-10T11:00:26.162Z,4.30
2018-12-10T11:02:58.250Z,5.70
2018-12-10T11:05:25.808Z,7.31
2018-12-10T11:07:53.353Z,8.96
2018-12-10T11:10:20.910Z,11.23
2018-12-10T11:12:48.607Z,12.10
2018-12-10T11:15:16.192Z,13.41
2018-12-10T11:17:43.754Z,14.41
2018-12-10T11:20:11.311Z,13.92
2018-12-10T11:22:40.407Z,13.86
2018-12-10T11:25:08.171Z,12.17
2018-12-10T11:27:35.738Z,10.80
2018-12-10T11:30:03.680Z,8.49
2018-12-10T11:32:31.268Z,7.23
2018-12-10T11:34:59.138Z,6.54
2018-12-10T11:37:26.694Z,6.09
2018-12-10T11:39:54.218Z,5.88
2018-12-10T11:42:21.800Z,5.62
2018-12-10T11:44:49.334Z,5.49
2018-12-10T11:47:16.840Z,5.35
2018-12-10T11:49:44.399Z,5.04
2018-12-10T11:52:11.925Z,4.74
2018-12-10T11:54:39.805Z,4.72
2018-12-10T11:57:07.393Z,4.64
2018-12-10T11:59:34.958Z,4.43
2018-12-10T12:02:03.149Z,4.41
2018-12-10T12:04:30.761Z,4.61
2018-12-10T12:06:58.290Z,4.70
2018-12-10T12:09:25.831Z,4.57
2018-12-10T12:11:53.365Z,4.54
2018-12-10T12:14:20.946Z,4.31
2018-12-10T12:16:48.517Z,4.41
2018-12-10T12:19:16.080Z,4.58
2018-12-10T12:21:43.605Z,4.49
2018-12-10T12:24:11.202Z,4.50
2018-12-10T12:26:38.766Z,4.54
2018-12-10T12:29:06.342Z,4.67
2018-12-10T12:31:33.905Z,4.45
2018-12-10T12:34:01.460Z,4.52
2018-12-10T12:36:29.037Z,4.48
2018-12-10T12:38:56.561Z,4.54
2018-12-10T12:41:24.112Z,4.33
2018-12-10T12:43:51.696Z,4.37
2018-12-10T12:46:19.226Z,4.28
2018-12-10T12:48:47.162Z,4.27
2018-12-10T12:51:14.961Z,4.28
2018-12-10T12:53:42.565Z,4.37
2018-12-10T12:56:10.141Z,4.42
2018-12-10T12:58:37.666Z,4.39
2018-12-10T13:01:05.243Z,4.37
2018-12-10T13:03:32.902Z,4.40
2018-12-10T13:06:06.707Z,4.43
2018-12-10T13:08:31.173Z,4.45
2018-12-10T13:10:59.593Z,4.30
2018-12-10T13:13:27.439Z,4.28
2018-12-10T13:15:55.012Z,4.22
2018-12-10T13:18:22.574Z,4.07
2018-12-10T13:20:50.126Z,4.20
2018-12-10T13:23:17.703Z,4.23
2018-12-10T13:25:45.269Z,4.22
2018-12-10T13:28:13.100Z,4.23
2018-12-10T13:30:40.677Z,4.23
2018-12-10T13:33:08.261Z,4.27
2018-12-10T13:38:06.744Z,4.22
2018-12-10T13:40:32.886Z,4.18
2018-12-10T13:43:00.907Z,4.11
2018-12-10T13:45:31.113Z,4.02
2018-12-10T13:47:58.071Z,3.96
2018-12-10T13:50:25.637Z,3.72
2018-12-10T13:52:53.222Z,3.75
2018-12-10T13:55:20.784Z,3.82
2018-12-10T13:57:48.354Z,3.83
2018-12-10T14:00:15.927Z,3.89
2018-12-10T14:02:43.494Z,3.91
2018-12-10T14:05:14.188Z,3.81
2018-12-10T14:07:41.785Z,3.75
2018-12-10T14:10:09.644Z,3.67
2018-12-10T14:12:37.185Z,3.67
2018-12-10T14:15:05.710Z,3.66
2018-12-10T14:17:33.256Z,3.61
2018-12-10T14:20:00.898Z,3.61
2018-12-10T14:22:28.797Z,3.62
2018-12-10T14:24:56.458Z,3.58
2018-12-10T14:27:23.998Z,3.54
2018-12-10T14:29:52.135Z,3.39
2018-12-10T14:32:19.665Z,3.37
2018-12-10T14:34:47.228Z,3.42
2018-12-10T14:37:14.861Z,3.34
2018-12-10T14:39:42.382Z,3.39
2018-12-10T14:42:26.205Z,3.36
2018-12-10T14:44:53.775Z,3.30
2018-12-10T14:47:21.342Z,3.34
2018-12-10T14:49:48.933Z,3.39
2018-12-10T14:52:16.453Z,3.39
2018-12-10T14:54:44.025Z,3.28
2018-12-10T14:57:11.586Z,3.22
2018-12-10T14:59:39.162Z,3.26
2018-12-10T15:02:06.857Z,3.17
2018-12-10T15:04:34.419Z,3.15
2018-12-10T15:07:02.128Z,3.27
2018-12-10T15:09:29.702Z,3.15
2018-12-10T15:11:57.278Z,3.13
2018-12-10T15:14:24.794Z,3.12
2018-12-10T15:16:52.371Z,3.18
2018-12-10T15:19:19.939Z,3.19
2018-12-10T15:21:47.512Z,3.12
2018-12-10T15:24:15.076Z,3.10
2018-12-10T15:26:42.628Z,3.14
2018-12-10T15:29:10.232Z,3.11
2018-12-10T15:31:37.882Z,3.06
2018-12-10T15:34:05.458Z,3.12
2018-12-10T15:36:33.006Z,3.08
2018-12-10T15:39:01.194Z,3.04
2018-12-10T15:41:28.770Z,3.12
2018-12-10T15:43:56.405Z,3.07
2018-12-10T15:46:24.038Z,3.06
2018-12-10T15:48:51.598Z,3.09
2018-12-10T15:51:19.119Z,3.13
2018-12-10T15:53:47.166Z,3.08
2018-12-10T15:56:14.736Z,3.04
2018-12-10T15:58:42.402Z,3.02
2018-12-10T16:01:09.982Z,3.02
2018-12-10T16:03:37.730Z,3.04
2018-12-10T16:06:05.287Z,3.11
2018-12-10T16:08:32.834Z,3.12
2018-12-10T16:11:00.417Z,3.07
2018-12-10T16:13:27.962Z,2.93
2018-12-10T16:15:55.530Z,2.94
2018-12-10T16:18:23.082Z,2.97
2018-12-10T16:20:50.611Z,2.98
2018-12-10T16:23:18.430Z,2.94
2018-12-10T16:25:45.997Z,2.92
2018-12-10T16:28:13.550Z,2.84
2018-12-10T16:30:41.177Z,2.94
2018-12-10T16:33:08.749Z,2.85
2018-12-10T16:35:36.318Z,2.73
2018-12-10T16:38:03.893Z,2.75
2018-12-10T16:40:31.485Z,2.65
2018-12-10T16:42:59.164Z,2.72
2018-12-10T16:45:26.726Z,2.64
2018-12-10T16:47:54.317Z,2.66
2018-12-10T16:50:21.895Z,2.70
2018-12-10T16:52:49.485Z,2.63
2018-12-10T16:55:17.107Z,2.63
2018-12-10T16:57:44.639Z,2.54
2018-12-10T17:00:12.695Z,2.59
2018-12-10T17:02:40.242Z,2.63
2018-12-10T17:05:07.920Z,2.64
2018-12-10T17:07:35.489Z,2.68
2018-12-10T17:10:03.702Z,2.70
2018-12-10T17:12:31.272Z,2.65
2018-12-10T17:14:58.998Z,2.73
2018-12-10T17:17:26.709Z,2.71
2018-12-10T17:19:54.580Z,2.63
2018-12-10T17:22:22.160Z,2.66
2018-12-10T17:24:49.694Z,2.65
2018-12-10T17:27:17.282Z,2.63
2018-12-10T17:29:44.861Z,2.67
2018-12-10T17:32:12.450Z,2.70
2018-12-10T17:34:40.012Z,2.77
2018-12-10T17:37:07.666Z,2.83
2018-12-10T17:39:35.220Z,2.83
2018-12-10T17:42:02.912Z,2.70
2018-12-10T17:44:30.550Z,2.62
2018-12-10T17:46:58.112Z,2.62
2018-12-10T17:49:25.906Z,2.46
2018-12-10T17:51:53.470Z,2.47
2018-12-10T17:54:21.027Z,2.55
2018-12-10T17:56:48.653Z,2.39
2018-12-10T17:59:16.531Z,2.36
2018-12-10T18:01:44.113Z,2.33
2018-12-10T18:04:11.682Z,2.32
2018-12-10T18:06:39.336Z,2.33
2018-12-10T18:09:07.210Z,2.07
2018-12-10T18:11:35.273Z,2.12
2018-12-10T18:14:03.020Z,2.14
2018-12-10T18:16:30.578Z,2.19
2018-12-10T18:18:58.185Z,2.18
2018-12-10T18:21:25.779Z,2.15
2018-12-10T18:23:53.401Z,2.14
2018-12-10T18:26:22.113Z,2.20
2018-12-10T18:28:49.710Z,2.23
2018-12-10T18:31:17.261Z,2.28
2018-12-10T18:33:45.157Z,2.19
2018-12-10T18:36:12.728Z,2.26
2018-12-10T18:38:40.294Z,2.20
2018-12-10T18:41:07.861Z,2.30
2018-12-10T18:43:35.442Z,2.34
2018-12-10T18:46:03.051Z,2.29
2018-12-10T18:48:30.666Z,2.36
2018-12-10T18:50:58.259Z,2.34
2018-12-10T18:53:25.826Z,2.21
2018-12-10T18:55:53.414Z,2.31
2018-12-10T18:58:21.005Z,2.28
2018-12-10T19:00:48.609Z,2.21
2018-12-10T19:03:16.178Z,2.31
2018-12-10T19:05:43.812Z,2.33
2018-12-10T19:08:11.399Z,2.36
2018-12-10T19:10:38.988Z,2.32
2018-12-10T19:13:06.568Z,2.13
2018-12-10T19:15:34.188Z,2.26
2018-12-10T19:18:02.008Z,2.26
2018-12-10T19:20:29.611Z,2.32
2018-12-10T19:22:57.206Z,2.31
2018-12-10T19:25:24.790Z,2.25
2018-12-10T19:27:52.406Z,2.38
2018-12-10T19:30:20.018Z,2.33
2018-12-10T19:32:47.615Z,2.27
2018-12-10T19:35:15.206Z,2.30
2018-12-10T19:37:42.780Z,2.29
2018-12-10T19:40:10.344Z,2.30
2018-12-10T19:42:38.310Z,2.27
2018-12-10T19:45:06.651Z,2.21
2018-12-10T19:47:34.242Z,2.19
2018-12-10T19:50:02.249Z,2.19
2018-12-10T19:52:29.808Z,2.21
2018-12-10T19:54:57.428Z,2.14
2018-12-10T19:57:25.042Z,2.26
2018-12-10T19:59:52.663Z,2.19
2018-12-10T20:02:20.262Z,2.23
2018-12-10T20:04:49.043Z,2.24
2018-12-10T20:07:16.613Z,2.26
2018-12-10T20:09:44.250Z,2.23
2018-12-10T20:12:12.007Z,2.27
2018-12-10T20:14:39.607Z,2.27
2018-12-10T20:17:07.218Z,2.24
2018-12-10T20:19:34.818Z,2.24
2018-12-10T20:22:02.434Z,2.27
2018-12-10T20:24:30.010Z,2.21
2018-12-10T20:26:57.641Z,2.15
2018-12-10T20:29:25.585Z,2.12
2018-12-10T20:31:53.248Z,1.90
2018-12-10T20:34:20.918Z,1.80
2018-12-10T20:36:49.517Z,1.61
2018-12-10T20:39:17.167Z,1.65
2018-12-10T20:41:45.286Z,1.64
2018-12-10T20:44:12.915Z,1.62
2018-12-10T20:46:40.532Z,1.61
2018-12-10T20:49:08.118Z,1.64
2018-12-10T20:51:35.664Z,1.74
2018-12-10T20:54:03.362Z,1.74
2018-12-10T20:56:30.970Z,1.67
2018-12-10T20:58:58.538Z,1.73
2018-12-10T21:01:26.103Z,1.78
2018-12-10T21:03:53.698Z,1.77
2018-12-10T21:06:26.913Z,1.75
2018-12-10T21:08:54.488Z,1.83
2018-12-10T21:11:22.096Z,1.80
2018-12-10T21:13:49.676Z,1.76
2018-12-10T21:16:17.334Z,1.82
2018-12-10T21:18:44.876Z,1.85
2018-12-10T21:21:12.457Z,1.78
2018-12-10T21:23:40.104Z,1.84
2018-12-10T21:26:07.668Z,1.83
2018-12-10T21:28:35.266Z,1.74
2018-12-10T21:31:02.891Z,1.76
2018-12-10T21:33:30.439Z,1.84
2018-12-10T21:35:58.016Z,1.87
2018-12-10T21:38:25.568Z,1.82
2018-12-10T21:40:53.226Z,1.87
2018-12-10T21:43:21.128Z,1.87
2018-12-10T21:45:48.701Z,1.88
2018-12-10T21:48:16.344Z,1.89
2018-12-10T21:50:43.993Z,1.87
2018-12-10T21:53:11.710Z,1.84
2018-12-10T21:55:39.301Z,1.93
2018-12-10T21:58:06.890Z,1.85
2018-12-10T22:00:34.509Z,1.95
2018-12-10T22:03:02.511Z,1.93
2018-12-10T22:05:30.057Z,1.93
2018-12-10T22:07:57.886Z,1.85
2018-12-10T22:10:25.459Z,1.82
2018-12-10T22:12:53.105Z,1.83
2018-12-10T22:15:20.689Z,1.85
2018-12-10T22:17:48.238Z,1.73
2018-12-10T22:20:15.853Z,1.73
2018-12-10T22:22:43.421Z,1.81
2018-12-10T22:25:10.925Z,1.80
2018-12-10T22:27:38.509Z,1.83
2018-12-10T22:30:06.590Z,1.89
2018-12-10T22:32:34.454Z,1.83
2018-12-10T22:35:02.146Z,1.78
2018-12-10T22:37:29.757Z,1.76
2018-12-10T22:39:57.321Z,1.74
2018-12-10T22:42:24.888Z,1.69
2018-12-10T22:44:52.457Z,1.78
2018-12-10T22:47:20.004Z,1.82
2018-12-10T22:49:47.590Z,1.74
2018-12-10T22:52:15.178Z,1.73
2018-12-10T22:54:42.763Z,1.71
2018-12-10T22:57:10.678Z,1.72
2018-12-10T22:59:39.128Z,1.75
2018-12-10T23:02:06.650Z,1.78
2018-12-10T23:04:34.199Z,1.72
2018-12-10T23:07:02.890Z,1.74
2018-12-10T23:09:30.433Z,1.79
2018-12-10T23:11:58.018Z,1.73
2018-12-10T23:14:25.559Z,1.76
2018-12-10T23:16:53.310Z,1.82
2018-12-10T23:19:20.877Z,1.89
2018-12-10T23:21:48.434Z,1.87
2018-12-10T23:24:15.988Z,1.91
2018-12-10T23:26:43.523Z,1.89
2018-12-10T23:29:11.115Z,1.86
2018-12-10T23:31:38.650Z,1.91
2018-12-10T23:34:06.184Z,1.83
2018-12-10T23:36:33.741Z,1.84
2018-12-10T23:39:01.720Z,1.79
2018-12-10T23:41:29.237Z,1.76
2018-12-10T23:43:56.877Z,1.77
2018-12-10T23:46:24.452Z,1.76
2018-12-10T23:48:51.986Z,1.77
2018-12-10T23:51:19.646Z,1.73
2018-12-10T23:53:47.201Z,1.69
2018-12-10T23:56:14.734Z,1.67
2018-12-10T23:58:42.310Z,1.70
